Time;durP1;ratioP1;P1;durP2;ratioP2;P2;SDS_P1;SDS_P2;PMS_P1;PMS_P2;Temp;Humidity;BMP_temperature;BMP_pressure;BME280_temperature;BME280_humidity;BME280_pressure;Samples;Min_cycle;Max_cycle;Signal;HPM_P1;HPM_P2
2022/02/12 00:00:30;;;;;;;19.73;3.50;;;-2.40;99.90;;;;;;5053778;28;20029;-71
2022/02/12 00:02:56;;;;;;;15.00;3.42;;;-2.50;99.90;;;;;;5053653;28;20092;-71
2022/02/12 00:05:24;;;;;;;26.55;4.03;;;-2.60;99.90;;;;;;5053684;28;20075;-71
2022/02/12 00:07:53;;;;;;;17.00;2.63;;;-2.60;99.90;;;;;;5053585;28;20032;-71
2022/02/12 00:10:20;;;;;;;16.70;3.58;;;-2.60;99.90;;;;;;5054043;28;20496;-71
2022/02/12 00:12:45;;;;;;;16.95;2.88;;;-2.50;99.90;;;;;;5053501;28;20025;-70
2022/02/12 00:15:11;;;;;;;15.85;3.20;;;-2.30;99.90;;;;;;5053823;28;20033;-71
2022/02/12 00:17:37;;;;;;;21.67;3.45;;;-2.20;99.90;;;;;;5053571;28;20021;-71
2022/02/12 00:20:04;;;;;;;19.48;3.67;;;-2.00;99.90;;;;;;5053587;28;20022;-71
2022/02/12 00:22:30;;;;;;;13.15;2.67;;;-2.00;99.90;;;;;;5053653;28;20043;-71
2022/02/12 00:24:58;;;;;;;23.27;3.70;;;-1.90;99.90;;;;;;5053733;28;20021;-71
2022/02/12 00:27:24;;;;;;;31.38;4.57;;;-1.90;99.90;;;;;;5053685;28;20052;-71
2022/02/12 00:29:49;;;;;;;17.42;3.05;;;-2.00;99.90;;;;;;5053439;28;20469;-71
2022/02/12 00:32:15;;;;;;;24.60;3.88;;;-2.00;99.90;;;;;;5053316;28;20139;-71
2022/02/12 00:34:40;;;;;;;30.73;3.90;;;-1.90;99.90;;;;;;5054280;28;20044;-71
2022/02/12 00:37:06;;;;;;;25.88;4.35;;;-1.80;99.90;;;;;;5057159;28;20028;-70
2022/02/12 00:39:32;;;;;;;22.98;4.13;;;-1.70;99.90;;;;;;5057268;28;20032;-70
2022/02/12 00:41:57;;;;;;;27.30;3.58;;;-1.80;99.90;;;;;;5057386;28;20412;-71
2022/02/12 00:44:23;;;;;;;17.27;3.08;;;-1.90;99.90;;;;;;5057086;28;20155;-71
2022/02/12 00:46:50;;;;;;;17.63;3.45;;;-1.80;99.90;;;;;;5057170;28;20031;-71
2022/02/12 00:49:15;;;;;;;14.90;3.10;;;-1.80;99.90;;;;;;5057628;28;20533;-71
2022/02/12 00:51:41;;;;;;;27.35;4.40;;;-1.80;99.90;;;;;;5057020;28;20083;-71
2022/02/12 00:54:07;;;;;;;31.23;4.20;;;-1.80;99.90;;;;;;5057047;28;20013;-70
2022/02/12 00:56:32;;;;;;;31.52;3.50;;;-1.80;99.90;;;;;;5056918;28;20025;-70
2022/02/12 00:58:58;;;;;;;25.20;3.20;;;-1.70;99.90;;;;;;5056805;28;20025;-70
2022/02/12 01:01:24;;;;;;;20.02;3.28;;;-1.70;99.90;;;;;;5038886;28;20028;-70
2022/02/12 01:03:49;;;;;;;23.15;3.47;;;-1.70;99.90;;;;;;5057112;28;20016;-70
2022/02/12 01:06:15;;;;;;;19.70;2.83;;;-1.60;99.90;;;;;;5056714;28;20470;-70
2022/02/12 01:08:41;;;;;;;19.20;3.35;;;-1.50;99.90;;;;;;5056732;28;20051;-71
2022/02/12 01:11:07;;;;;;;13.40;3.17;;;-1.40;99.90;;;;;;5056648;28;20086;-70
2022/02/12 01:13:32;;;;;;;34.38;4.35;;;-1.30;99.90;;;;;;5056652;28;20024;-70
2022/02/12 01:15:58;;;;;;;13.98;4.00;;;-1.30;99.90;;;;;;5056698;28;20048;-70
2022/02/12 01:18:23;;;;;;;18.38;3.35;;;-1.30;99.90;;;;;;5056499;28;20397;-70
2022/02/12 01:20:49;;;;;;;24.85;4.03;;;-1.30;99.90;;;;;;5056606;28;20473;-70
2022/02/12 01:23:15;;;;;;;20.88;3.45;;;-1.40;99.90;;;;;;5056689;28;20017;-70
2022/02/12 01:25:41;;;;;;;17.42;3.20;;;-1.40;99.90;;;;;;5056601;28;20035;-70
2022/02/12 01:28:06;;;;;;;23.50;3.58;;;-1.30;99.90;;;;;;5056398;28;20032;-71
2022/02/12 01:30:32;;;;;;;31.27;3.85;;;-1.40;99.90;;;;;;5056236;28;20104;-70
2022/02/12 01:32:58;;;;;;;38.55;4.50;;;-1.40;99.90;;;;;;5056551;28;20064;-70
2022/02/12 01:35:24;;;;;;;21.42;3.00;;;-1.40;99.90;;;;;;5056254;28;20029;-70
2022/02/12 01:37:52;;;;;;;26.00;3.47;;;-1.40;99.90;;;;;;5056022;28;20028;-70
2022/02/12 01:40:21;;;;;;;24.33;3.40;;;-1.40;99.90;;;;;;5056461;28;20350;-70
2022/02/12 01:42:47;;;;;;;17.02;2.80;;;-1.30;99.90;;;;;;5056003;28;20489;-70
2022/02/12 01:45:13;;;;;;;21.85;3.80;;;-1.30;99.90;;;;;;5056337;28;20424;-70
2022/02/12 01:47:39;;;;;;;28.73;5.28;;;-1.40;99.90;;;;;;5054886;28;20021;-70
2022/02/12 01:50:05;;;;;;;24.90;2.63;;;-1.40;99.90;;;;;;5055815;28;20033;-71
2022/02/12 01:52:36;;;;;;;18.05;3.03;;;-1.40;99.90;;;;;;5055777;28;20478;-71
2022/02/12 01:55:02;;;;;;;19.95;2.80;;;-1.40;99.90;;;;;;5055843;28;20029;-71
2022/02/12 01:57:27;;;;;;;22.52;2.90;;;-1.40;99.90;;;;;;5055702;28;20021;-70
2022/02/12 01:59:53;;;;;;;21.30;2.88;;;-1.40;99.90;;;;;;5038054;28;20362;-70
2022/02/12 02:02:19;;;;;;;20.02;3.05;;;-1.40;99.90;;;;;;5055518;28;20020;-71
2022/02/12 02:04:44;;;;;;;27.17;3.00;;;-1.40;99.90;;;;;;5056169;28;20032;-71
2022/02/12 02:07:11;;;;;;;18.70;2.58;;;-1.40;99.90;;;;;;5055673;28;20381;-70
2022/02/12 02:09:36;;;;;;;21.50;2.60;;;-1.40;99.90;;;;;;5055615;28;20029;-70
2022/02/12 02:12:03;;;;;;;34.85;3.92;;;-1.40;99.90;;;;;;5055631;28;20031;-70
2022/02/12 02:14:33;;;;;;;29.73;3.42;;;-1.40;99.90;;;;;;5055537;28;20108;-70
2022/02/12 02:16:59;;;;;;;32.42;3.45;;;-1.40;99.90;;;;;;5055328;28;20033;-70
2022/02/12 02:19:25;;;;;;;23.98;3.05;;;-1.40;99.90;;;;;;5055594;28;20436;-70
2022/02/12 02:21:52;;;;;;;20.92;2.60;;;-1.50;99.90;;;;;;5055371;28;20017;-70
2022/02/12 02:24:19;;;;;;;21.70;3.15;;;-1.50;99.90;;;;;;5055291;28;20553;-70
2022/02/12 02:26:45;;;;;;;19.45;2.78;;;-1.40;99.90;;;;;;5055168;28;20021;-70
2022/02/12 02:29:10;;;;;;;27.42;3.90;;;-1.30;99.90;;;;;;5055575;28;20112;-70
2022/02/12 02:31:36;;;;;;;34.00;3.92;;;-1.30;99.90;;;;;;5055084;28;20025;-70
2022/02/12 02:34:12;;;;;;;27.50;3.05;;;-1.30;99.90;;;;;;5055031;28;20029;-70
2022/02/12 02:36:38;;;;;;;17.75;3.00;;;-1.20;99.90;;;;;;5055414;28;20029;-70
2022/02/12 02:39:05;;;;;;;20.65;3.10;;;-1.30;99.90;;;;;;5054926;28;20025;-70
2022/02/12 02:41:32;;;;;;;26.30;3.53;;;-1.30;99.90;;;;;;5055020;28;20060;-70
2022/02/12 02:43:57;;;;;;;21.42;3.25;;;-1.30;99.90;;;;;;5054837;28;20021;-70
2022/02/12 02:46:23;;;;;;;17.58;2.88;;;-1.30;99.90;;;;;;5054880;28;20025;-71
2022/02/12 02:48:49;;;;;;;27.77;3.30;;;-1.30;99.90;;;;;;5054758;28;20386;-70
2022/02/12 02:56:42;;;;;;;29.88;3.28;;;-1.20;99.90;;;;;;5054597;28;20039;-69
2022/02/12 02:59:08;;;;;;;28.73;3.90;;;-1.10;99.90;;;;;;5054456;28;20029;-69
2022/02/12 03:01:35;;;;;;;29.55;3.63;;;-1.10;99.90;;;;;;5054448;28;20067;-69
2022/02/12 03:04:02;;;;;;;38.95;6.47;;;-1.00;99.90;;;;;;5054438;28;20469;-69
2022/02/12 03:06:28;;;;;;;41.30;4.22;;;-1.00;99.90;;;;;;5054463;28;20079;-69
2022/02/12 03:08:55;;;;;;;26.60;4.03;;;-1.10;99.90;;;;;;5054940;28;20028;-69
2022/02/12 03:11:21;;;;;;;22.17;2.65;;;-1.20;99.90;;;;;;5054274;28;20108;-69
2022/02/12 03:13:48;;;;;;;32.20;4.72;;;-1.20;99.90;;;;;;5054234;28;20033;-69
2022/02/12 03:16:14;;;;;;;25.92;3.00;;;-1.20;99.90;;;;;;5054163;28;20064;-69
2022/02/12 03:18:42;;;;;;;22.77;3.38;;;-1.20;99.90;;;;;;5054468;28;20021;-69
2022/02/12 03:21:08;;;;;;;24.60;3.10;;;-1.30;99.90;;;;;;5054027;28;20025;-69
2022/02/12 03:23:34;;;;;;;38.70;3.33;;;-1.40;99.90;;;;;;5054523;28;20163;-69
2022/02/12 03:25:59;;;;;;;22.20;3.10;;;-1.40;99.90;;;;;;5054632;28;20029;-69
2022/02/12 03:28:25;;;;;;;42.22;3.33;;;-1.30;99.90;;;;;;5054120;28;20055;-69
2022/02/12 03:30:51;;;;;;;21.48;2.67;;;-1.30;99.90;;;;;;5053896;28;20025;-69
2022/02/12 03:33:17;;;;;;;25.40;3.17;;;-1.40;99.90;;;;;;5053979;28;20496;-69
2022/02/12 03:35:44;;;;;;;21.40;2.80;;;-1.30;99.90;;;;;;5053921;28;20033;-69
2022/02/12 03:38:15;;;;;;;22.27;2.63;;;-1.30;99.90;;;;;;5053796;28;20029;-69
2022/02/12 03:40:45;;;;;;;30.42;6.35;;;-1.30;99.90;;;;;;5054171;28;20108;-69
2022/02/12 03:43:11;;;;;;;32.95;3.50;;;-1.30;99.90;;;;;;5054589;28;20021;-69
2022/02/12 03:45:38;;;;;;;26.10;3.25;;;-1.40;99.90;;;;;;5053723;28;20021;-69
2022/02/12 03:48:04;;;;;;;10.20;2.17;;;-1.40;99.90;;;;;;5053778;28;20041;-69
2022/02/12 03:50:31;;;;;;;35.08;5.22;;;-1.40;99.90;;;;;;5035641;28;20025;-69
2022/02/12 03:53:01;;;;;;;21.15;2.55;;;-1.60;99.90;;;;;;5054298;28;20493;-69
2022/02/12 03:55:27;;;;;;;27.08;2.47;;;-1.60;99.90;;;;;;5053973;28;20036;-69
2022/02/12 03:57:52;;;;;;;31.17;4.65;;;-1.50;99.90;;;;;;5053589;28;20025;-69
2022/02/12 04:00:19;;;;;;;32.65;3.13;;;-1.50;99.90;;;;;;5053604;28;20025;-69
2022/02/12 04:02:45;;;;;;;37.53;4.22;;;-1.60;99.90;;;;;;5053338;28;20032;-69
2022/02/12 04:05:12;;;;;;;25.95;4.55;;;-1.60;99.90;;;;;;5053624;28;20021;-69
2022/02/12 04:07:40;;;;;;;29.17;3.60;;;-1.50;99.90;;;;;;5053623;28;20045;-69
2022/02/12 04:10:06;;;;;;;21.30;3.55;;;-1.50;99.90;;;;;;5055224;28;20017;-69
2022/02/12 04:12:32;;;;;;;18.25;3.17;;;-1.40;99.90;;;;;;5057338;28;20025;-69
2022/02/12 04:14:57;;;;;;;26.75;3.35;;;-1.20;99.90;;;;;;5058181;28;20028;-69
2022/02/12 04:17:24;;;;;;;28.58;3.33;;;-1.00;99.90;;;;;;5057709;28;20025;-69
2022/02/12 04:19:51;;;;;;;30.98;2.80;;;-0.80;99.90;;;;;;5057598;28;20048;-69
2022/02/12 04:22:16;;;;;;;25.45;3.55;;;-0.60;99.90;;;;;;5057657;28;20385;-69
2022/02/12 04:24:42;;;;;;;26.38;3.42;;;-0.50;99.90;;;;;;5058074;28;20074;-69
2022/02/12 04:27:08;;;;;;;32.88;3.20;;;-0.40;99.90;;;;;;5057346;28;20021;-69
2022/02/12 04:29:33;;;;;;;25.33;3.80;;;-0.30;99.90;;;;;;5057414;28;20100;-69
2022/02/12 04:31:59;;;;;;;27.67;3.55;;;-0.20;99.90;;;;;;5057290;28;20067;-69
2022/02/12 04:34:24;;;;;;;16.80;2.60;;;-0.20;99.90;;;;;;5057900;28;20036;-69
2022/02/12 04:36:50;;;;;;;15.75;3.28;;;-0.10;99.90;;;;;;5039439;28;20438;-69
2022/02/12 04:39:16;;;;;;;21.13;2.65;;;0.00;99.90;;;;;;5057336;28;20377;-69
2022/02/12 04:41:42;;;;;;;32.90;3.58;;;0.10;99.90;;;;;;5057036;28;20035;-69
2022/02/12 04:44:08;;;;;;;12.98;3.30;;;0.20;99.90;;;;;;5057391;28;20104;-69
2022/02/12 04:46:33;;;;;;;21.42;3.30;;;0.20;99.90;;;;;;5057805;28;20453;-69
2022/02/12 04:49:00;;;;;;;18.75;3.13;;;0.30;99.90;;;;;;5057131;28;20504;-69
2022/02/12 04:51:26;;;;;;;26.67;4.40;;;0.30;99.90;;;;;;5056918;28;20040;-69
2022/02/12 04:53:51;;;;;;;18.48;2.55;;;0.40;99.90;;;;;;5056914;28;20054;-69
2022/02/12 04:56:18;;;;;;;23.05;3.17;;;0.40;99.90;;;;;;5056959;28;20029;-69
2022/02/12 04:58:43;;;;;;;22.17;2.60;;;0.40;99.90;;;;;;5056719;28;20040;-69
2022/02/12 05:01:20;;;;;;;27.20;2.85;;;0.50;99.90;;;;;;5057005;28;20017;-69
2022/02/12 05:03:53;;;;;;;21.35;2.30;;;0.50;99.90;;;;;;5056781;28;20017;-69
2022/02/12 05:06:20;;;;;;;19.58;2.85;;;0.50;99.90;;;;;;5057014;28;20025;-69
2022/02/12 05:08:46;;;;;;;13.95;2.25;;;0.50;99.90;;;;;;5056623;28;20386;-69
2022/02/12 05:11:12;;;;;;;15.18;3.25;;;0.70;99.90;;;;;;5056552;28;20064;-69
2022/02/12 05:13:38;;;;;;;19.42;3.13;;;0.70;99.90;;;;;;5056718;28;20039;-69
2022/02/12 05:16:05;;;;;;;18.52;2.55;;;0.90;99.90;;;;;;5056560;28;20025;-69
2022/02/12 05:18:30;;;;;;;24.17;5.68;;;0.90;99.90;;;;;;5056445;28;20035;-69
2022/02/12 05:20:56;;;;;;;24.27;3.88;;;0.90;99.90;;;;;;5056314;28;20017;-69
2022/02/12 05:23:22;;;;;;;17.25;2.28;;;1.00;99.90;;;;;;5056649;28;20105;-69
2022/02/12 05:25:48;;;;;;;23.83;3.95;;;1.00;99.90;;;;;;5056982;28;20462;-69
2022/02/12 05:28:13;;;;;;;13.90;2.33;;;1.00;99.90;;;;;;5056295;28;20029;-69
2022/02/12 05:30:41;;;;;;;15.07;3.40;;;1.00;99.90;;;;;;5056573;28;20517;-69
2022/02/12 05:33:07;;;;;;;18.60;2.72;;;1.00;99.90;;;;;;5056480;28;20025;-69
2022/02/12 05:35:32;;;;;;;15.50;2.53;;;1.00;99.90;;;;;;5056168;28;20029;-69
2022/02/12 05:37:58;;;;;;;9.15;2.08;;;0.90;99.90;;;;;;5056316;28;20075;-69
2022/02/12 05:40:24;;;;;;;11.73;2.15;;;0.90;99.90;;;;;;5056112;28;20104;-69
2022/02/12 05:42:49;;;;;;;27.02;2.30;;;0.80;99.90;;;;;;5056073;28;20119;-69
2022/02/12 05:45:15;;;;;;;26.85;2.50;;;0.60;99.90;;;;;;5056090;28;20104;-69
2022/02/12 05:47:41;;;;;;;14.20;1.90;;;0.60;99.90;;;;;;5055956;28;20427;-69
2022/02/12 05:50:08;;;;;;;22.33;2.25;;;0.50;99.90;;;;;;5056218;28;20032;-69
2022/02/12 05:52:35;;;;;;;13.35;1.95;;;0.40;99.90;;;;;;5055663;28;20044;-69
2022/02/12 05:55:01;;;;;;;28.27;2.58;;;0.40;99.90;;;;;;5055843;28;20060;-69
2022/02/12 05:57:27;;;;;;;35.35;3.13;;;0.40;99.90;;;;;;5056170;28;20397;-69
2022/02/12 05:59:52;;;;;;;21.23;2.55;;;0.40;99.90;;;;;;5055749;28;20029;-69
2022/02/12 06:02:18;;;;;;;20.48;2.35;;;0.40;99.90;;;;;;5055629;28;20060;-69
2022/02/12 06:04:43;;;;;;;22.98;2.25;;;0.30;99.90;;;;;;5055777;28;20056;-69
2022/02/12 06:07:10;;;;;;;19.98;2.97;;;0.30;99.90;;;;;;5056162;28;20021;-69
2022/02/12 06:09:36;;;;;;;22.05;2.58;;;0.30;99.90;;;;;;5055465;28;20040;-69
2022/02/12 06:12:02;;;;;;;12.88;1.88;;;0.30;99.90;;;;;;5055465;28;20123;-69
2022/02/12 06:14:28;;;;;;;19.50;2.72;;;0.20;99.90;;;;;;5055480;28;20021;-69
2022/02/12 06:16:57;;;;;;;23.52;3.58;;;0.20;99.90;;;;;;5055376;28;20496;-69
2022/02/12 06:19:22;;;;;;;23.05;3.65;;;0.20;99.90;;;;;;5055396;28;20025;-69
2022/02/12 06:21:48;;;;;;;11.52;2.15;;;0.20;99.90;;;;;;5055196;28;20024;-69
2022/02/12 06:24:13;;;;;;;24.23;3.40;;;0.10;99.90;;;;;;5055178;28;20037;-69
2022/02/12 06:26:43;;;;;;;27.95;4.47;;;0.10;99.90;;;;;;5055423;28;20021;-69
2022/02/12 06:29:10;;;;;;;15.93;3.47;;;0.00;99.90;;;;;;5055600;28;20025;-69
2022/02/12 06:31:35;;;;;;;21.90;4.43;;;0.00;99.90;;;;;;5055166;28;20500;-69
2022/02/12 06:34:01;;;;;;;14.40;3.22;;;0.10;99.90;;;;;;5054438;28;20036;-69
2022/02/12 06:36:27;;;;;;;14.32;2.83;;;0.20;99.90;;;;;;5055151;28;20093;-69
2022/02/12 06:38:52;;;;;;;18.33;3.72;;;0.10;99.90;;;;;;5054837;28;20029;-69
2022/02/12 06:41:18;;;;;;;16.88;4.00;;;0.00;99.90;;;;;;5055041;28;20028;-69
2022/02/12 06:43:43;;;;;;;25.58;3.83;;;0.10;99.90;;;;;;5054920;28;20391;-69
2022/02/12 06:46:09;;;;;;;17.58;3.63;;;0.10;99.90;;;;;;5054854;28;20492;-69
2022/02/12 06:48:36;;;;;;;14.20;3.15;;;0.10;99.90;;;;;;5054826;28;20084;-69
2022/02/12 06:51:02;;;;;;;25.73;4.47;;;0.10;99.90;;;;;;5054507;28;20037;-69
2022/02/12 06:53:28;;;;;;;23.42;4.45;;;0.10;99.90;;;;;;5054947;28;20104;-69
2022/02/12 06:55:53;;;;;;;24.00;4.45;;;0.20;99.90;;;;;;5054749;28;20107;-69
2022/02/12 06:58:19;;;;;;;36.70;5.43;;;0.20;99.90;;;;;;5054445;28;20079;-69
2022/02/12 07:00:45;;;;;;;21.85;4.18;;;0.30;99.90;;;;;;5055045;28;20028;-69
2022/02/12 07:03:11;;;;;;;29.80;4.65;;;0.20;99.90;;;;;;5054553;28;20025;-69
2022/02/12 07:05:36;;;;;;;28.30;4.47;;;0.20;99.90;;;;;;5054488;28;20172;-69
2022/02/12 07:08:03;;;;;;;21.50;4.30;;;0.30;99.90;;;;;;5054323;28;20535;-69
2022/02/12 07:10:32;;;;;;;25.58;5.05;;;0.20;99.90;;;;;;5054270;28;20508;-69
2022/02/12 07:12:57;;;;;;;19.15;4.90;;;0.30;99.90;;;;;;5054431;28;20029;-69
2022/02/12 07:15:23;;;;;;;27.40;4.60;;;0.40;99.90;;;;;;5054256;28;20047;-69
2022/02/12 07:17:48;;;;;;;24.48;5.50;;;0.40;99.90;;;;;;5054179;28;20064;-69
2022/02/12 07:20:14;;;;;;;31.15;4.85;;;0.40;99.90;;;;;;5054149;28;20028;-69
2022/02/12 07:22:40;;;;;;;20.30;4.82;;;0.50;99.90;;;;;;5054017;28;20029;-69
2022/02/12 07:25:08;;;;;;;32.10;5.13;;;0.50;99.90;;;;;;5054163;28;20025;-69
2022/02/12 07:27:34;;;;;;;23.42;5.03;;;0.60;99.90;;;;;;5054014;28;20393;-69
2022/02/12 07:30:00;;;;;;;41.83;5.65;;;0.60;99.90;;;;;;5054329;28;20509;-69
2022/02/12 07:32:26;;;;;;;33.22;5.30;;;0.60;99.90;;;;;;5054024;28;20110;-69
2022/02/12 07:34:51;;;;;;;26.98;5.78;;;0.60;99.90;;;;;;5054549;28;20096;-69
2022/02/12 07:37:17;;;;;;;21.95;4.78;;;0.70;99.90;;;;;;5054127;28;20116;-69
2022/02/12 07:39:42;;;;;;;26.70;5.20;;;0.80;99.90;;;;;;5054204;28;20029;-69
2022/02/12 07:42:08;;;;;;;30.83;5.07;;;0.80;99.90;;;;;;5053872;28;20025;-69
2022/02/12 07:44:34;;;;;;;23.92;4.88;;;0.80;99.90;;;;;;5053317;28;20094;-69
2022/02/12 07:47:00;;;;;;;29.67;4.65;;;0.80;99.90;;;;;;5053871;28;20473;-69
2022/02/12 07:49:25;;;;;;;37.60;5.68;;;0.80;99.90;;;;;;5053931;28;20086;-69
2022/02/12 07:51:51;;;;;;;36.72;5.32;;;0.90;99.90;;;;;;5053712;28;20527;-69
2022/02/12 07:54:16;;;;;;;33.22;6.20;;;0.90;99.90;;;;;;5053708;28;20021;-69
2022/02/12 07:56:42;;;;;;;27.88;4.95;;;0.90;99.90;;;;;;5053683;28;20032;-69
2022/02/12 07:59:07;;;;;;;25.50;4.95;;;1.00;99.90;;;;;;5053555;28;20025;-69
2022/02/12 08:01:33;;;;;;;43.53;6.95;;;1.00;99.90;;;;;;5053706;28;20484;-69
2022/02/12 08:03:59;;;;;;;36.80;4.95;;;1.00;99.90;;;;;;5053770;28;20035;-69
2022/02/12 08:09:09;;;;;;;36.05;5.60;;;1.00;99.90;;;;;;5053625;28;20159;-69
2022/02/12 08:11:38;;;;;;;19.52;6.78;;;1.10;99.90;;;;;;5053616;28;20067;-69
2022/02/12 08:14:04;;;;;;;38.15;6.70;;;1.10;99.90;;;;;;5053557;28;20021;-69
2022/02/12 08:16:30;;;;;;;28.17;5.45;;;1.20;99.90;;;;;;5053743;28;20025;-69
2022/02/12 08:18:55;;;;;;;31.02;6.30;;;1.10;99.90;;;;;;5053438;28;20025;-69
2022/02/12 08:21:21;;;;;;;25.23;5.93;;;1.10;99.90;;;;;;5053366;28;20090;-69
2022/02/12 08:23:46;;;;;;;29.80;4.95;;;1.20;99.90;;;;;;5053515;28;20029;-69
2022/02/12 08:26:12;;;;;;;33.42;5.72;;;1.20;99.90;;;;;;5054045;28;20020;-69
2022/02/12 08:28:37;;;;;;;31.88;5.65;;;1.10;99.90;;;;;;5053342;28;20397;-69
2022/02/12 08:31:03;;;;;;;36.03;5.65;;;1.20;99.90;;;;;;5053250;28;20397;-69
2022/02/12 08:33:29;;;;;;;27.48;6.05;;;1.20;99.90;;;;;;5035474;28;20473;-69
2022/02/12 08:35:55;;;;;;;29.80;5.90;;;1.30;99.90;;;;;;5053414;28;20021;-69
2022/02/12 08:38:21;;;;;;;39.53;7.38;;;1.30;99.90;;;;;;5054005;28;20048;-69
2022/02/12 08:40:47;;;;;;;36.92;6.18;;;1.40;99.90;;;;;;5053434;28;20028;-69
2022/02/12 08:43:14;;;;;;;39.28;6.07;;;1.50;99.90;;;;;;5053359;28;20021;-69
2022/02/12 08:45:40;;;;;;;26.23;6.20;;;1.60;99.90;;;;;;5053166;28;20021;-69
2022/02/12 08:48:09;;;;;;;18.00;5.00;;;1.60;99.90;;;;;;5053086;28;20473;-69
2022/02/12 08:50:35;;;;;;;22.52;6.45;;;1.70;99.90;;;;;;5053109;28;20025;-69
2022/02/12 08:53:01;;;;;;;23.52;5.43;;;1.70;99.90;;;;;;5053726;28;20108;-69
2022/02/12 08:55:28;;;;;;;28.25;5.07;;;1.70;99.90;;;;;;5053531;28;20049;-70
2022/02/12 08:57:54;;;;;;;42.70;6.00;;;1.90;99.90;;;;;;5056788;28;20029;-71
2022/02/12 09:00:20;;;;;;;20.45;5.53;;;1.80;99.90;;;;;;5056697;28;20029;-71
2022/02/12 09:02:45;;;;;;;38.55;5.70;;;1.90;99.90;;;;;;5057309;28;20025;-71
2022/02/12 09:05:11;;;;;;;28.63;6.65;;;2.00;99.90;;;;;;5056845;28;20029;-71
2022/02/12 09:07:36;;;;;;;29.20;5.60;;;2.00;99.90;;;;;;5057152;28;20032;-70
2022/02/12 09:10:02;;;;;;;39.35;6.68;;;2.10;99.90;;;;;;5056669;28;20432;-71
2022/02/12 09:12:28;;;;;;;31.27;5.57;;;2.20;99.90;;;;;;5056847;28;20469;-71
2022/02/12 09:14:54;;;;;;;29.15;5.63;;;2.40;99.90;;;;;;5056918;28;20056;-71
2022/02/12 09:17:20;;;;;;;29.63;5.30;;;2.50;99.90;;;;;;5056616;28;20481;-71
2022/02/12 09:19:45;;;;;;;24.90;5.47;;;2.50;99.90;;;;;;5056694;28;20071;-71
2022/02/12 09:22:11;;;;;;;27.50;4.63;;;2.60;99.90;;;;;;5056297;28;20036;-71
2022/02/12 09:24:37;;;;;;;26.33;4.68;;;2.70;99.90;;;;;;5056582;28;20025;-71
2022/02/12 09:27:03;;;;;;;21.33;4.45;;;2.80;99.90;;;;;;5057009;28;20036;-71
2022/02/12 09:29:29;;;;;;;20.85;5.10;;;2.90;99.90;;;;;;5056491;28;20096;-71
2022/02/12 09:31:54;;;;;;;35.28;5.90;;;3.00;99.90;;;;;;5056375;28;20511;-71
2022/02/12 09:34:20;;;;;;;29.58;5.07;;;2.90;99.90;;;;;;5056291;28;20496;-71
2022/02/12 09:36:45;;;;;;;44.45;6.88;;;2.90;99.90;;;;;;5056512;28;20470;-71
2022/02/12 09:39:11;;;;;;;26.50;5.10;;;3.00;99.90;;;;;;5055992;28;20068;-71
2022/02/12 09:41:37;;;;;;;24.50;5.70;;;3.20;99.90;;;;;;5056137;28;20032;-71
2022/02/12 09:44:02;;;;;;;25.90;5.25;;;3.30;99.90;;;;;;5056313;28;20120;-71
2022/02/12 09:46:29;;;;;;;36.15;6.10;;;3.30;99.90;;;;;;5056340;28;20386;-71
2022/02/12 09:48:55;;;;;;;25.20;4.63;;;3.40;99.90;;;;;;5056330;28;20488;-71
2022/02/12 09:51:23;;;;;;;39.15;6.50;;;3.50;99.90;;;;;;5056095;28;20129;-71
2022/02/12 09:53:49;;;;;;;36.63;6.57;;;3.50;99.90;;;;;;5056054;28;20388;-71
2022/02/12 09:56:15;;;;;;;27.50;5.28;;;3.50;99.90;;;;;;5056497;28;20025;-71
2022/02/12 09:58:40;;;;;;;26.33;5.97;;;3.50;99.90;;;;;;5056122;28;20119;-71
2022/02/12 10:01:07;;;;;;;23.23;4.95;;;3.40;99.90;;;;;;5055805;28;20027;-70
2022/02/12 10:03:33;;;;;;;34.58;6.72;;;3.40;99.90;;;;;;5037850;28;20112;-71
2022/02/12 10:06:00;;;;;;;33.92;5.93;;;3.40;99.90;;;;;;5055773;28;20025;-70
2022/02/12 10:08:25;;;;;;;43.15;6.10;;;3.40;99.90;;;;;;5054758;28;20052;-71
2022/02/12 10:10:52;;;;;;;35.53;6.00;;;3.50;99.90;;;;;;5055787;28;20470;-71
2022/02/12 10:13:28;;;;;;;29.23;6.85;;;3.60;99.90;;;;;;5055722;28;20029;-70
2022/02/12 10:15:55;;;;;;;31.05;7.95;;;3.80;99.90;;;;;;5055699;28;20496;-71
2022/02/12 10:18:23;;;;;;;34.47;6.05;;;3.90;99.90;;;;;;5055436;28;20384;-71
2022/02/12 10:20:50;;;;;;;31.30;7.35;;;3.90;99.90;;;;;;5055305;28;20021;-71
2022/02/12 10:23:20;;;;;;;34.42;5.85;;;4.10;99.90;;;;;;5055857;28;20103;-71
2022/02/12 10:25:48;;;;;;;34.25;6.45;;;4.20;99.90;;;;;;5055447;28;20021;-71
2022/02/12 10:28:16;;;;;;;36.65;6.78;;;4.30;99.90;;;;;;5055506;28;20465;-71
2022/02/12 10:30:46;;;;;;;34.47;6.03;;;4.30;99.90;;;;;;5055304;28;20029;-71
2022/02/12 10:33:12;;;;;;;29.88;5.80;;;4.30;99.90;;;;;;5055221;28;20108;-71
2022/02/12 10:35:39;;;;;;;38.13;6.05;;;4.40;99.90;;;;;;5055360;28;20053;-71
2022/02/12 10:38:10;;;;;;;35.85;5.90;;;4.50;99.90;;;;;;5055111;28;20029;-71
2022/02/12 10:40:37;;;;;;;36.67;6.43;;;4.50;99.90;;;;;;5055247;28;20032;-71
2022/02/12 10:43:03;;;;;;;40.85;7.13;;;4.60;99.90;;;;;;5055108;28;20021;-71
2022/02/12 10:45:29;;;;;;;34.17;6.80;;;4.70;99.90;;;;;;5055312;28;20052;-71
2022/02/12 10:47:57;;;;;;;35.60;5.60;;;4.70;99.90;;;;;;5054920;28;20025;-71
2022/02/12 10:50:25;;;;;;;31.83;6.38;;;4.70;99.90;;;;;;5054623;28;20079;-70
2022/02/12 10:52:56;;;;;;;31.45;6.03;;;4.70;99.90;;;;;;5055338;28;20035;-70
2022/02/12 10:55:35;;;;;;;31.75;5.80;;;4.80;99.90;;;;;;5055268;28;20112;-71
2022/02/12 10:58:10;;;;;;;37.17;5.47;;;4.80;99.90;;;;;;5055222;28;20052;-71
2022/02/12 11:00:39;;;;;;;28.05;6.25;;;4.80;99.90;;;;;;5054813;28;20350;-70
2022/02/12 11:03:09;;;;;;;27.55;5.47;;;4.70;99.90;;;;;;5055104;28;20082;-71
2022/02/12 11:05:36;;;;;;;38.65;6.70;;;4.70;99.90;;;;;;5054921;28;20462;-70
2022/02/12 11:08:07;;;;;;;22.50;5.82;;;4.60;99.90;;;;;;5054599;28;20540;-71
2022/02/12 11:10:34;;;;;;;30.27;6.53;;;4.60;99.90;;;;;;5054899;28;20104;-71
2022/02/12 11:13:01;;;;;;;34.42;7.63;;;4.70;99.90;;;;;;5054368;28;20083;-71
2022/02/12 11:15:30;;;;;;;36.30;6.93;;;4.90;99.90;;;;;;5054470;28;20061;-71
2022/02/12 11:17:58;;;;;;;48.05;7.45;;;5.10;99.90;;;;;;5054484;28;20032;-71
2022/02/12 11:20:27;;;;;;;38.83;7.18;;;5.20;99.90;;;;;;5054160;28;20021;-71
2022/02/12 11:23:25;;;;;;;36.28;7.78;;;5.30;99.90;;;;;;5054295;28;20016;-71
2022/02/12 11:26:14;;;;;;;24.45;6.93;;;5.20;99.90;;;;;;5054289;28;20024;-72
2022/02/12 11:28:41;;;;;;;31.27;5.80;;;5.20;99.90;;;;;;5054076;28;20060;-71
2022/02/12 11:31:24;;;;;;;23.23;5.55;;;5.20;99.90;;;;;;5054171;28;20021;-71
2022/02/12 11:34:09;;;;;;;32.85;5.93;;;5.30;99.90;;;;;;5054123;28;20021;-71
2022/02/12 11:36:36;;;;;;;39.03;6.45;;;5.20;99.90;;;;;;5054157;28;20039;-71
2022/02/12 11:39:14;;;;;;;31.00;5.38;;;5.20;99.90;;;;;;5036143;28;20136;-71
2022/02/12 11:41:47;;;;;;;42.53;7.30;;;5.00;99.90;;;;;;5054048;28;20047;-71
2022/02/12 11:44:38;;;;;;;29.88;6.78;;;5.00;99.90;;;;;;5054239;28;20032;-71
2022/02/12 11:47:05;;;;;;;35.10;7.95;;;5.20;99.90;;;;;;5054556;28;20028;-71
2022/02/12 11:49:39;;;;;;;31.33;6.88;;;5.30;99.90;;;;;;5053941;28;20103;-71
2022/02/12 11:52:10;;;;;;;40.72;6.70;;;5.30;99.90;;;;;;5053713;28;20389;-71
2022/02/12 11:55:02;;;;;;;29.70;5.63;;;5.30;99.90;;;;;;5053798;28;20029;-71
2022/02/12 11:57:28;;;;;;;24.95;5.82;;;5.40;99.90;;;;;;5054084;28;20101;-71
2022/02/12 12:00:03;;;;;;;38.78;6.13;;;5.30;99.90;;;;;;5054111;28;20100;-71
2022/02/12 12:02:45;;;;;;;40.72;6.53;;;5.40;99.90;;;;;;5053646;28;20021;-71
2022/02/12 12:05:24;;;;;;;27.38;5.70;;;5.50;99.90;;;;;;5053927;28;20017;-71
2022/02/12 12:07:59;;;;;;;27.40;5.55;;;5.50;99.90;;;;;;5053891;28;20032;-71
2022/02/12 12:10:26;;;;;;;25.65;6.68;;;5.50;99.90;;;;;;5053059;28;20028;-70
2022/02/12 12:12:58;;;;;;;35.22;6.65;;;5.60;99.90;;;;;;5053351;28;20033;-71
2022/02/12 12:15:26;;;;;;;34.63;6.50;;;5.80;99.90;;;;;;5053838;28;20482;-71
2022/02/12 12:17:57;;;;;;;23.33;6.05;;;6.00;99.90;;;;;;5053770;28;20461;-72
2022/02/12 12:20:32;;;;;;;30.80;7.00;;;6.10;99.90;;;;;;5053664;28;20108;-71
2022/02/12 12:23:01;;;;;;;33.20;7.38;;;6.00;99.90;;;;;;5053091;28;20032;-71
2022/02/12 12:25:27;;;;;;;18.77;4.70;;;6.10;99.90;;;;;;5053723;28;20017;-71
2022/02/12 12:27:52;;;;;;;41.55;6.43;;;6.00;99.90;;;;;;5053419;28;20075;-71
2022/02/12 12:33:02;;;;;;;27.90;6.43;;;6.10;99.90;;;;;;5057791;28;20048;-71
2022/02/12 12:35:28;;;;;;;32.08;6.63;;;6.00;99.90;;;;;;5057664;28;20466;-71
2022/02/12 12:37:56;;;;;;;32.88;6.35;;;6.00;99.90;;;;;;5057476;28;20024;-71
2022/02/12 12:40:32;;;;;;;24.80;6.00;;;5.90;99.90;;;;;;5057176;28;20095;-71
2022/02/12 12:43:06;;;;;;;37.28;7.13;;;5.90;99.90;;;;;;5039372;28;20029;-71
2022/02/12 12:45:41;;;;;;;25.75;5.53;;;5.70;99.90;;;;;;5057438;28;20032;-71
2022/02/12 12:48:07;;;;;;;17.88;5.20;;;5.70;99.90;;;;;;5057465;28;20373;-71
2022/02/12 12:50:40;;;;;;;39.03;6.28;;;5.70;99.90;;;;;;5057150;28;20086;-71
2022/02/12 12:53:11;;;;;;;17.90;6.00;;;5.70;99.90;;;;;;5057318;28;20029;-71